Time;durP1;ratioP1;P1;durP2;ratioP2;P2;SDS_P1;SDS_P2;PMS_P1;PMS_P2;Temp;Humidity;BMP_temperature;BMP_pressure;BME280_temperature;BME280_humidity;BME280_pressure;Samples;Min_cycle;Max_cycle;Signal;HPM_P1;HPM_P2
2023/09/27 00:02:18;;;;;;;5.47;4.00;;;;;;;;;;6141156;28;20335;-80
2023/09/27 00:05:21;;;;;;;7.85;4.47;;;;;;;;;;6152712;28;20051;-80
2023/09/27 00:08:26;;;;;;;7.40;4.07;;;;;;;;;;6153904;28;20047;-79
2023/09/27 00:12:05;;;;;;;8.48;4.32;;;;;;;;;;6154661;28;20054;-79
2023/09/27 00:15:20;;;;;;;8.32;4.07;;;;;;;;;;6168548;28;20390;-77
2023/09/27 00:18:22;;;;;;;7.93;4.45;;;;;;;;;;6178345;28;20050;-78
2023/09/27 00:21:24;;;;;;;6.13;3.85;;;;;;;;;;6169181;28;20058;-78
2023/09/27 00:24:26;;;;;;;7.63;4.10;;;;;;;;;;6174712;28;20054;-77
2023/09/27 00:27:35;;;;;;;7.47;4.40;;;;;;;;;;6175659;28;20089;-78
2023/09/27 00:30:44;;;;;;;6.50;4.20;;;;;;;;;;6243373;28;20332;-82
2023/09/27 00:33:55;;;;;;;;;;;;;;;;;;;;;
2023/09/27 00:37:10;;;;;;;9.68;4.70;;;;;;;;;;6184558;28;20219;-80
2023/09/27 00:40:23;;;;;;;6.68;4.72;;;;;;;;;;6260992;28;20048;-80
2023/09/27 00:43:27;;;;;;;7.63;4.17;;;;;;;;;;6254613;28;20047;-79
2023/09/27 00:46:29;;;;;;;6.38;4.20;;;;;;;;;;6262765;28;20341;-78
2023/09/27 00:49:34;;;;;;;7.25;4.13;;;;;;;;;;6282867;28;20044;-80
2023/09/27 00:52:40;;;;;;;7.68;4.85;;;;;;;;;;6290820;28;20059;-79
2023/09/27 00:55:43;;;;;;;6.60;4.72;;;;;;;;;;6294829;28;20395;-78
2023/09/27 00:58:52;;;;;;;8.32;4.95;;;;;;;;;;6282064;28;20387;-78
2023/09/27 01:01:54;;;;;;;7.57;4.55;;;;;;;;;;6252813;28;20241;-75
2023/09/27 01:04:59;;;;;;;8.38;5.10;;;;;;;;;;6264305;28;20057;-76
2023/09/27 01:08:01;;;;;;;8.82;4.38;;;;;;;;;;6261114;28;20049;-78
2023/09/27 01:11:06;;;;;;;8.40;4.38;;;;;;;;;;6269239;28;20076;-77
2023/09/27 01:14:13;;;;;;;8.55;5.18;;;;;;;;;;6269417;28;20045;-78
2023/09/27 01:17:21;;;;;;;9.73;4.50;;;;;;;;;;6268880;28;20272;-77
2023/09/27 01:23:41;;;;;;;9.25;4.90;;;;;;;;;;6261947;28;20134;-77
2023/09/27 01:30:03;;;;;;;7.82;4.22;;;;;;;;;;6228844;28;20115;-77
2023/09/27 01:33:06;;;;;;;10.55;4.43;;;;;;;;;;6266974;28;20253;-76
2023/09/27 01:36:18;;;;;;;;;;;;;;;;;;;;;
2023/09/27 01:39:24;;;;;;;6.10;4.05;;;;;;;;;;6261983;28;20087;-75
2023/09/27 01:42:43;;;;;;;5.88;4.03;;;;;;;;;;6263846;28;20053;-76
2023/09/27 01:46:00;;;;;;;11.07;4.65;;;;;;;;;;6268056;28;20076;-75
2023/09/27 01:49:02;;;;;;;10.63;4.53;;;;;;;;;;6264695;28;20107;-76
2023/09/27 01:52:04;;;;;;;10.10;4.65;;;;;;;;;;6268438;28;20049;-75
2023/09/27 01:55:19;;;;;;;8.60;4.13;;;;;;;;;;6270335;28;20057;-75
2023/09/27 01:58:23;;;;;;;9.10;4.07;;;;;;;;;;6265649;28;20050;-77
2023/09/27 02:01:25;;;;;;;13.75;4.97;;;;;;;;;;6268875;28;20091;-75
2023/09/27 02:04:27;;;;;;;12.65;5.13;;;;;;;;;;6269350;28;20102;-78
2023/09/27 02:07:29;;;;;;;13.48;5.43;;;;;;;;;;6268493;28;20045;-78
2023/09/27 02:10:35;;;;;;;7.75;4.95;;;;;;;;;;6263201;28;20056;-77
2023/09/27 02:13:36;;;;;;;9.13;5.22;;;;;;;;;;6271751;28;20124;-79
2023/09/27 02:16:41;;;;;;;10.70;5.07;;;;;;;;;;6260856;28;20265;-78
2023/09/27 02:19:43;;;;;;;7.63;4.57;;;;;;;;;;6264817;28;20052;-78
2023/09/27 02:22:46;;;;;;;9.48;5.22;;;;;;;;;;6261457;28;20053;-78
2023/09/27 02:25:58;;;;;;;8.50;4.57;;;;;;;;;;6261851;28;20048;-76
2023/09/27 02:29:00;;;;;;;7.32;5.13;;;;;;;;;;6265697;28;20091;-77
2023/09/27 02:32:05;;;;;;;7.70;4.70;;;;;;;;;;6265238;28;20057;-76
2023/09/27 02:35:09;;;;;;;6.63;4.65;;;;;;;;;;6262829;28;20049;-75
2023/09/27 02:38:10;;;;;;;7.10;4.65;;;;;;;;;;6263520;28;20049;-76
2023/09/27 02:41:14;;;;;;;7.32;5.22;;;;;;;;;;6264867;28;20575;-78
2023/09/27 02:44:15;;;;;;;12.93;5.07;;;;;;;;;;6264283;28;20056;-79
2023/09/27 02:47:17;;;;;;;8.32;4.53;;;;;;;;;;6268007;28;20053;-78
2023/09/27 02:50:21;;;;;;;7.60;4.63;;;;;;;;;;6266584;28;20365;-77
2023/09/27 02:53:23;;;;;;;9.65;4.95;;;;;;;;;;6267686;28;20345;-77
2023/09/27 02:56:26;;;;;;;9.18;4.82;;;;;;;;;;6266212;28;20037;-79
2023/09/27 02:59:29;;;;;;;9.98;4.75;;;;;;;;;;6270090;28;20751;-77
2023/09/27 03:02:32;;;;;;;8.40;5.35;;;;;;;;;;6269451;28;20111;-77
2023/09/27 03:05:36;;;;;;;8.07;4.90;;;;;;;;;;6271296;28;20297;-78
2023/09/27 03:08:38;;;;;;;10.07;5.38;;;;;;;;;;6266098;28;20295;-77
2023/09/27 03:11:43;;;;;;;8.65;4.40;;;;;;;;;;6270854;28;20250;-76
2023/09/27 03:14:44;;;;;;;7.72;5.03;;;;;;;;;;6267445;28;20057;-76
2023/09/27 03:17:48;;;;;;;8.32;5.15;;;;;;;;;;6268231;28;20122;-78
2023/09/27 03:20:51;;;;;;;15.15;5.47;;;;;;;;;;6265499;28;20049;-77
2023/09/27 03:23:53;;;;;;;7.55;5.13;;;;;;;;;;6271894;28;21727;-77
2023/09/27 03:26:57;;;;;;;9.52;5.05;;;;;;;;;;6270015;28;20099;-77
2023/09/27 03:29:59;;;;;;;8.88;5.10;;;;;;;;;;6267467;28;20052;-76
2023/09/27 03:33:01;;;;;;;8.43;4.70;;;;;;;;;;6268721;28;20073;-77
2023/09/27 03:36:03;;;;;;;7.85;4.70;;;;;;;;;;6274201;28;20246;-76
2023/09/27 03:39:05;;;;;;;13.02;5.15;;;;;;;;;;6265452;28;20053;-76
2023/09/27 03:42:09;;;;;;;9.65;5.00;;;;;;;;;;6267057;28;20053;-76
2023/09/27 03:45:11;;;;;;;10.48;5.07;;;;;;;;;;6266511;28;20112;-80
2023/09/27 03:48:13;;;;;;;8.82;5.18;;;;;;;;;;6266807;28;20049;-78
2023/09/27 03:51:14;;;;;;;11.98;5.15;;;;;;;;;;6267200;28;20261;-76
2023/09/27 03:54:16;;;;;;;9.30;4.63;;;;;;;;;;6271058;28;20329;-77
2023/09/27 03:57:19;;;;;;;7.43;4.55;;;;;;;;;;6265406;28;20053;-78
2023/09/27 04:00:21;;;;;;;7.38;4.30;;;;;;;;;;6270351;28;20057;-77
2023/09/27 04:03:23;;;;;;;8.48;4.88;;;;;;;;;;6266402;28;20060;-77
2023/09/27 04:06:25;;;;;;;6.60;4.72;;;;;;;;;;6265446;28;20092;-78
2023/09/27 04:09:27;;;;;;;7.85;4.95;;;;;;;;;;6263938;28;20071;-77
2023/09/27 04:12:31;;;;;;;10.93;5.05;;;;;;;;;;6268616;28;20045;-78
2023/09/27 04:15:32;;;;;;;7.13;4.53;;;;;;;;;;6260691;28;20112;-78
2023/09/27 04:18:34;;;;;;;7.32;4.38;;;;;;;;;;6269269;28;20236;-78
2023/09/27 04:21:36;;;;;;;8.80;4.85;;;;;;;;;;6271355;28;20053;-78
2023/09/27 04:24:38;;;;;;;8.25;4.82;;;;;;;;;;6269205;28;20112;-78
2023/09/27 04:27:43;;;;;;;7.05;4.45;;;;;;;;;;6270853;28;20057;-78
2023/09/27 04:30:44;;;;;;;9.55;4.47;;;;;;;;;;6268866;28;20276;-80
2023/09/27 04:33:47;;;;;;;7.68;4.70;;;;;;;;;;6270449;28;20392;-79
2023/09/27 04:36:50;;;;;;;8.73;4.75;;;;;;;;;;6267726;28;20095;-83
2023/09/27 04:39:52;;;;;;;7.45;4.53;;;;;;;;;;6268461;28;20075;-80
2023/09/27 04:42:55;;;;;;;6.95;4.50;;;;;;;;;;6270956;28;20349;-82
2023/09/27 04:45:57;;;;;;;7.45;4.40;;;;;;;;;;6267083;28;20249;-80
2023/09/27 04:48:58;;;;;;;8.65;4.60;;;;;;;;;;6269728;28;20057;-80
2023/09/27 04:52:00;;;;;;;6.93;5.20;;;;;;;;;;6269721;28;20053;-80
2023/09/27 04:55:02;;;;;;;8.38;4.68;;;;;;;;;;6268916;28;20053;-78
2023/09/27 04:58:06;;;;;;;9.15;4.63;;;;;;;;;;6268491;28;20045;-79
2023/09/27 05:01:09;;;;;;;;;;;;;;;;;;6269278;28;20049;-79
2023/09/27 05:04:10;;;;;;;5.68;4.13;;;;;;;;;;6270182;28;19970;-78
2023/09/27 05:07:12;;;;;;;7.40;4.55;;;;;;;;;;6266346;28;20237;-80
2023/09/27 05:10:14;;;;;;;9.57;5.20;;;;;;;;;;6273072;28;20123;-79
2023/09/27 05:13:21;;;;;;;7.82;4.60;;;;;;;;;;6271379;28;20057;-78
2023/09/27 05:16:22;;;;;;;6.50;4.38;;;;;;;;;;6268837;28;20210;-80
2023/09/27 05:19:24;;;;;;;10.90;4.40;;;;;;;;;;6271155;28;20040;-78
2023/09/27 05:22:26;;;;;;;9.48;3.88;;;;;;;;;;6272239;28;20053;-80
2023/09/27 05:25:27;;;;;;;6.97;4.53;;;;;;;;;;6268026;28;20210;-78
2023/09/27 05:28:32;;;;;;;7.40;4.55;;;;;;;;;;6271139;28;20057;-79
2023/09/27 05:31:34;;;;;;;6.18;3.90;;;;;;;;;;6269951;28;20120;-79
2023/09/27 05:34:35;;;;;;;9.02;3.92;;;;;;;;;;6268136;28;20352;-77
2023/09/27 05:37:37;;;;;;;5.07;3.60;;;;;;;;;;6273491;28;20260;-79
2023/09/27 05:40:39;;;;;;;5.93;3.47;;;;;;;;;;6268241;28;20048;-78
2023/09/27 05:43:42;;;;;;;5.78;3.80;;;;;;;;;;6266705;28;20230;-79
2023/09/27 05:46:43;;;;;;;6.65;3.65;;;;;;;;;;6266079;28;20057;-79
2023/09/27 05:49:45;;;;;;;9.80;4.20;;;;;;;;;;6267681;28;20065;-79
2023/09/27 05:52:47;;;;;;;10.02;4.43;;;;;;;;;;6267858;28;20059;-80
2023/09/27 05:55:49;;;;;;;7.60;3.75;;;;;;;;;;6266810;28;20305;-81
2023/09/27 05:58:52;;;;;;;5.47;3.55;;;;;;;;;;6267613;28;20080;-79
2023/09/27 06:01:54;;;;;;;5.82;3.80;;;;;;;;;;6267782;28;20120;-80
2023/09/27 06:04:56;;;;;;;6.82;3.72;;;;;;;;;;6268075;28;20091;-81
2023/09/27 06:07:58;;;;;;;8.07;3.85;;;;;;;;;;6266788;28;20128;-80
2023/09/27 06:11:18;;;;;;;6.82;3.92;;;;;;;;;;6265348;28;20053;-80
2023/09/27 06:14:21;;;;;;;9.48;4.47;;;;;;;;;;6265690;28;20098;-78
2023/09/27 06:17:24;;;;;;;9.90;4.07;;;;;;;;;;6270021;28;20292;-79
2023/09/27 06:20:30;;;;;;;9.93;4.20;;;;;;;;;;6266008;28;20057;-80
2023/09/27 06:23:31;;;;;;;13.25;4.05;;;;;;;;;;6269714;28;20053;-79
2023/09/27 06:26:34;;;;;;;9.80;4.35;;;;;;;;;;6265636;28;20072;-79
2023/09/27 06:29:37;;;;;;;10.45;4.70;;;;;;;;;;6274110;28;20083;-79
2023/09/27 06:32:41;;;;;;;7.88;4.13;;;;;;;;;;6272577;28;20111;-80
2023/09/27 06:35:43;;;;;;;6.82;4.40;;;;;;;;;;6264065;28;20687;-80
2023/09/27 06:38:44;;;;;;;8.60;4.47;;;;;;;;;;6270975;28;20053;-79
2023/09/27 06:41:46;;;;;;;7.57;4.75;;;;;;;;;;6270239;28;20052;-80
2023/09/27 06:44:50;;;;;;;8.63;4.32;;;;;;;;;;6272546;28;20048;-78
2023/09/27 06:47:53;;;;;;;;;;;;;;;;;;6274457;28;20049;-80
2023/09/27 06:54:13;;;;;;;9.65;4.28;;;;;;;;;;6268495;28;20053;-83
2023/09/27 06:57:15;;;;;;;12.00;5.30;;;;;;;;;;6271227;28;20060;-79
2023/09/27 07:00:21;;;;;;;9.20;5.03;;;;;;;;;;6270389;28;20345;-81
2023/09/27 07:03:24;;;;;;;11.07;4.72;;;;;;;;;;6272544;28;20053;-80
2023/09/27 07:06:27;;;;;;;11.25;5.40;;;;;;;;;;6268257;28;20114;-81
2023/09/27 07:09:29;;;;;;;9.95;4.80;;;;;;;;;;6272092;28;20120;-82
2023/09/27 07:12:31;;;;;;;10.88;5.97;;;;;;;;;;6272258;28;20076;-82
2023/09/27 07:15:34;;;;;;;11.88;5.47;;;;;;;;;;6269865;28;20049;-81
2023/09/27 07:18:36;;;;;;;10.02;5.00;;;;;;;;;;6270420;28;20041;-80
2023/09/27 07:21:38;;;;;;;11.23;5.10;;;;;;;;;;6269441;28;20058;-79
2023/09/27 07:24:40;;;;;;;11.73;4.90;;;;;;;;;;6272313;28;20101;-81
2023/09/27 07:27:42;;;;;;;6.97;4.60;;;;;;;;;;6271199;28;20053;-81
2023/09/27 07:30:45;;;;;;;8.63;5.03;;;;;;;;;;6271304;28;20060;-80
2023/09/27 07:33:48;;;;;;;;;;;;;;;;;;6266161;28;20934;-79
2023/09/27 07:36:51;;;;;;;11.05;6.50;;;;;;;;;;6266025;28;19924;-80
2023/09/27 07:39:52;;;;;;;;;;;;;;;;;;6272531;28;20285;-81
2023/09/27 07:42:54;;;;;;;7.40;4.72;;;;;;;;;;6271497;28;19924;-80
2023/09/27 07:45:59;;;;;;;9.63;5.35;;;;;;;;;;6267047;28;20128;-79
2023/09/27 07:49:01;;;;;;;8.98;5.50;;;;;;;;;;6230901;28;1124741;-81
2023/09/27 07:52:02;;;;;;;9.60;4.82;;;;;;;;;;6268927;28;20049;-79
2023/09/27 07:55:05;;;;;;;9.30;5.38;;;;;;;;;;6266266;28;20250;-79
2023/09/27 07:58:07;;;;;;;8.30;5.30;;;;;;;;;;6268369;28;20144;-79
2023/09/27 08:01:12;;;;;;;11.68;5.30;;;;;;;;;;6270265;28;20048;-80
2023/09/27 08:04:15;;;;;;;8.98;5.25;;;;;;;;;;6267962;28;20063;-80
2023/09/27 08:07:18;;;;;;;11.43;4.93;;;;;;;;;;6270718;28;20049;-80
2023/09/27 08:10:20;;;;;;;10.88;5.00;;;;;;;;;;6273258;28;20345;-79
2023/09/27 08:13:22;;;;;;;10.30;5.82;;;;;;;;;;6271572;28;20049;-77
2023/09/27 08:16:26;;;;;;;15.88;8.63;;;;;;;;;;6272510;28;20338;-80
2023/09/27 08:19:28;;;;;;;12.63;6.28;;;;;;;;;;6269096;28;20049;-79
2023/09/27 08:22:31;;;;;;;9.50;5.93;;;;;;;;;;6268016;28;20057;-79
2023/09/27 08:25:33;;;;;;;12.27;6.07;;;;;;;;;;6271487;28;20072;-79
2023/09/27 08:28:34;;;;;;;12.65;6.40;;;;;;;;;;6273428;28;20048;-79
2023/09/27 08:31:38;;;;;;;9.65;5.25;;;;;;;;;;6268736;28;20050;-78
2023/09/27 08:34:40;;;;;;;13.50;6.07;;;;;;;;;;6270697;28;21052;-79
2023/09/27 08:37:41;;;;;;;11.55;6.05;;;;;;;;;;6271319;28;20071;-78
2023/09/27 08:40:43;;;;;;;11.57;6.00;;;;;;;;;;6271750;28;20078;-79
2023/09/27 08:43:47;;;;;;;9.25;5.95;;;;;;;;;;6267742;28;20112;-79
2023/09/27 08:46:50;;;;;;;9.55;5.05;;;;;;;;;;6266686;28;20060;-79
2023/09/27 08:49:52;;;;;;;12.88;5.15;;;;;;;;;;6268069;28;20057;-78
2023/09/27 08:52:54;;;;;;;10.18;5.55;;;;;;;;;;6270674;28;20064;-78
2023/09/27 08:55:56;;;;;;;9.35;5.20;;;;;;;;;;6268505;28;20238;-80
2023/09/27 08:58:58;;;;;;;9.10;4.20;;;;;;;;;;6267946;28;20044;-79
2023/09/27 09:02:05;;;;;;;12.88;5.40;;;;;;;;;;6270604;28;20052;-79
2023/09/27 09:05:07;;;;;;;17.05;7.82;;;;;;;;;;6266984;28;20049;-79
2023/09/27 09:08:09;;;;;;;10.07;5.85;;;;;;;;;;6267691;28;20239;-77
2023/09/27 09:11:13;;;;;;;10.15;5.38;;;;;;;;;;6267940;28;20798;-77
2023/09/27 09:14:17;;;;;;;10.02;5.53;;;;;;;;;;6267616;28;20052;-78
2023/09/27 09:17:24;;;;;;;9.60;5.10;;;;;;;;;;6268853;28;20055;-79
2023/09/27 09:20:32;;;;;;;13.68;5.45;;;;;;;;;;6269520;28;20044;-80
2023/09/27 09:23:35;;;;;;;11.68;5.30;;;;;;;;;;6267984;28;20388;-80
2023/09/27 09:26:36;;;;;;;12.32;4.97;;;;;;;;;;6268098;28;20064;-79
2023/09/27 09:29:57;;;;;;;11.10;4.87;;;;;;;;;;6270194;28;20047;-79
2023/09/27 09:33:00;;;;;;;11.35;5.47;;;;;;;;;;6266950;28;20116;-78
2023/09/27 09:36:02;;;;;;;17.48;5.65;;;;;;;;;;6271494;28;20237;-77
2023/09/27 09:39:05;;;;;;;7.18;4.45;;;;;;;;;;6266679;28;20120;-79
2023/09/27 09:42:08;;;;;;;8.27;4.10;;;;;;;;;;6267246;28;20356;-79
2023/09/27 09:45:12;;;;;;;11.98;5.45;;;;;;;;;;6270385;28;20282;-78
2023/09/27 09:48:15;;;;;;;8.25;4.25;;;;;;;;;;6270242;28;20083;-80
2023/09/27 09:51:18;;;;;;;9.35;4.10;;;;;;;;;;6267220;28;20060;-78
2023/09/27 09:54:30;;;;;;;6.95;3.95;;;;;;;;;;6267760;28;20045;-79
2023/09/27 09:57:35;;;;;;;10.73;5.00;;;;;;;;;;6269351;28;20091;-78
2023/09/27 10:00:39;;;;;;;8.52;4.30;;;;;;;;;;6268035;28;20048;-80
2023/09/27 10:03:47;;;;;;;9.10;4.10;;;;;;;;;;6266712;28;20440;-80
2023/09/27 10:06:50;;;;;;;10.27;4.15;;;;;;;;;;6267125;28;20277;-80
2023/09/27 10:09:53;;;;;;;9.98;4.50;;;;;;;;;;6266980;28;20061;-79
2023/09/27 10:12:55;;;;;;;7.90;4.10;;;;;;;;;;6266864;28;20241;-79
2023/09/27 10:15:57;;;;;;;9.75;4.13;;;;;;;;;;6268347;28;20230;-79
2023/09/27 10:19:02;;;;;;;6.43;3.97;;;;;;;;;;6266364;28;20059;-79
2023/09/27 10:22:05;;;;;;;8.38;4.05;;;;;;;;;;6266292;28;20092;-79
2023/09/27 10:25:31;;;;;;;6.38;3.75;;;;;;;;;;6266067;28;20055;-79
2023/09/27 10:28:33;;;;;;;13.85;3.80;;;;;;;;;;6267542;28;20524;-79
2023/09/27 10:31:37;;;;;;;8.40;3.95;;;;;;;;;;6263517;28;20068;-79
2023/09/27 10:34:41;;;;;;;9.75;3.88;;;;;;;;;;6266505;28;20342;-79
2023/09/27 10:37:59;;;;;;;8.90;3.40;;;;;;;;;;6270692;28;20049;-79
2023/09/27 10:41:03;;;;;;;7.32;3.80;;;;;;;;;;6286908;28;20056;-81
2023/09/27 10:44:05;;;;;;;6.38;3.83;;;;;;;;;;6290789;28;20344;-79
2023/09/27 10:47:07;;;;;;;8.57;3.53;;;;;;;;;;6289834;28;20278;-79
2023/09/27 10:50:11;;;;;;;5.93;3.83;;;;;;;;;;6289885;28;20767;-79
2023/09/27 10:53:13;;;;;;;6.50;3.50;;;;;;;;;;6290076;28;20052;-79
2023/09/27 10:56:15;;;;;;;5.38;3.58;;;;;;;;;;6291015;28;20321;-79
2023/09/27 10:59:26;;;;;;;6.25;3.45;;;;;;;;;;6291302;28;20349;-79
2023/09/27 11:02:29;;;;;;;6.55;3.47;;;;;;;;;;6289231;28;20041;-79
2023/09/27 11:05:32;;;;;;;5.88;3.42;;;;;;;;;;6291017;28;20059;-79
2023/09/27 11:08:36;;;;;;;5.22;3.55;;;;;;;;;;6295275;28;20360;-79
2023/09/27 11:11:44;;;;;;;7.82;3.70;;;;;;;;;;6293924;28;20115;-79
2023/09/27 11:14:45;;;;;;;7.88;3.70;;;;;;;;;;6294844;28;20060;-79
2023/09/27 11:17:55;;;;;;;7.15;3.53;;;;;;;;;;6292868;28;20289;-79
2023/09/27 11:21:11;;;;;;;5.82;3.00;;;;;;;;;;6297257;28;20087;-79
2023/09/27 11:24:14;;;;;;;5.45;3.67;;;;;;;;;;6273250;28;20049;-79
2023/09/27 11:27:19;;;;;;;7.43;3.50;;;;;;;;;;6296070;28;20340;-79
2023/09/27 11:30:25;;;;;;;14.63;3.80;;;;;;;;;;6294342;28;20082;-79
2023/09/27 11:33:31;;;;;;;6.38;3.63;;;;;;;;;;6295445;28;20048;-79
2023/09/27 11:36:41;;;;;;;8.55;3.72;;;;;;;;;;6294414;28;20084;-79
2023/09/27 11:39:50;;;;;;;6.47;3.28;;;;;;;;;;6294684;28;20067;-79
2023/09/27 11:42:54;;;;;;;9.25;3.78;;;;;;;;;;6298343;28;20064;-79
2023/09/27 11:45:57;;;;;;;9.00;3.58;;;;;;;;;;6288850;28;20349;-79
2023/09/27 11:49:08;;;;;;;7.45;3.78;;;;;;;;;;6270409;28;20065;-81
2023/09/27 11:52:12;;;;;;;7.90;3.75;;;;;;;;;;6272232;28;20115;-81
2023/09/27 11:55:14;;;;;;;8.63;3.28;;;;;;;;;;6268275;28;20081;-79
2023/09/27 11:58:40;;;;;;;10.68;3.78;;;;;;;;;;6264770;28;20048;-79
2023/09/27 12:01:42;;;;;;;12.68;7.47;;;;;;;;;;6259602;28;20057;-80
2023/09/27 12:04:44;;;;;;;7.18;3.88;;;;;;;;;;6282104;28;20049;-80
2023/09/27 12:07:48;;;;;;;8.18;4.00;;;;;;;;;;6279794;28;20080;-81
2023/09/27 12:10:53;;;;;;;4.60;3.20;;;;;;;;;;6269991;28;20049;-80
2023/09/27 12:13:54;;;;;;;6.00;3.42;;;;;;;;;;6270192;28;20056;-79
2023/09/27 12:20:45;;;;;;;6.35;3.47;;;;;;;;;;6267802;28;20116;-79
2023/09/27 12:23:54;;;;;;;5.55;3.45;;;;;;;;;;6293088;28;20110;-81
2023/09/27 12:26:56;;;;;;;9.60;3.67;;;;;;;;;;6294258;28;20112;-78
2023/09/27 12:29:59;;;;;;;9.07;3.47;;;;;;;;;;6294066;28;20161;-79
2023/09/27 12:33:01;;;;;;;9.15;4.07;;;;;;;;;;6293337;28;20329;-80
2023/09/27 12:36:06;;;;;;;7.93;3.50;;;;;;;;;;6263273;28;20057;-80
2023/09/27 12:39:10;;;;;;;6.15;3.17;;;;;;;;;;6283181;28;20106;-80
2023/09/27 12:42:14;;;;;;;4.95;3.35;;;;;;;;;;6273198;28;20281;-79
2023/09/27 12:45:16;;;;;;;7.25;3.70;;;;;;;;;;6291368;28;20048;-77
2023/09/27 12:48:18;;;;;;;8.68;3.70;;;;;;;;;;6291536;28;20124;-80
2023/09/27 12:51:20;;;;;;;9.02;3.80;;;;;;;;;;6293568;28;20067;-79
2023/09/27 12:54:24;;;;;;;7.28;3.45;;;;;;;;;;6295396;28;20067;-79
2023/09/27 12:57:31;;;;;;;7.10;3.03;;;;;;;;;;6228098;28;20247;-79
2023/09/27 13:00:34;;;;;;;6.72;3.05;;;;;;;;;;6287762;28;20082;-79
2023/09/27 13:03:41;;;;;;;8.65;3.38;;;;;;;;;;6291296;28;20052;-80
2023/09/27 13:06:45;;;;;;;4.22;3.42;;;;;;;;;;6292204;28;20052;-80
2023/09/27 13:09:51;;;;;;;8.85;3.42;;;;;;;;;;6267535;28;20325;-80
2023/09/27 13:13:25;;;;;;;7.05;3.33;;;;;;;;;;6246904;28;20077;-80
2023/09/27 13:16:28;;;;;;;7.72;4.15;;;;;;;;;;6262872;28;20065;-80
2023/09/27 13:19:40;;;;;;;;;;;;;;;;;;;;;
2023/09/27 13:22:42;;;;;;;9.20;3.55;;;;;;;;;;6261919;28;20053;-79
2023/09/27 13:25:52;;;;;;;80.28;60.08;;;;;;;;;;6267501;28;20068;-78
2023/09/27 13:32:12;;;;;;;35.65;22.90;;;;;;;;;;6250108;28;20071;-79
2023/09/27 13:35:17;;;;;;;28.73;21.33;;;;;;;;;;6242371;28;20104;-78
2023/09/27 13:38:29;;;;;;;34.55;23.88;;;;;;;;;;6267837;28;20237;-79
2023/09/27 13:41:39;;;;;;;63.88;47.28;;;;;;;;;;6264856;28;20124;-79
2023/09/27 13:44:41;;;;;;;18.45;13.90;;;;;;;;;;6264976;28;20328;-79
2023/09/27 13:47:43;;;;;;;;;;;;;;;;;;6271729;28;20127;-80
2023/09/27 13:50:53;;;;;;;5.68;3.53;;;;;;;;;;6287012;28;19935;-78
2023/09/27 13:53:55;;;;;;;7.13;3.90;;;;;;;;;;6265442;28;20049;-81
2023/09/27 13:56:59;;;;;;;10.10;3.97;;;;;;;;;;6267358;28;20088;-81
2023/09/27 14:00:01;;;;;;;9.68;3.58;;;;;;;;;;6273217;28;20068;-81
2023/09/27 14:03:03;;;;;;;7.65;3.92;;;;;;;;;;6280613;28;20250;-79
2023/09/27 14:06:08;;;;;;;7.68;3.97;;;;;;;;;;6289556;28;20052;-80
2023/09/27 14:09:10;;;;;;;8.00;4.00;;;;;;;;;;6290840;28;20052;-81
2023/09/27 14:12:14;;;;;;;10.07;3.80;;;;;;;;;;6291745;28;20057;-79
2023/09/27 14:18:43;;;;;;;8.90;3.65;;;;;;;;;;6285787;28;20047;-79
2023/09/27 14:21:45;;;;;;;8.43;3.42;;;;;;;;;;6289802;28;20086;-80
2023/09/27 14:24:48;;;;;;;9.38;3.75;;;;;;;;;;6291411;28;20045;-80
2023/09/27 14:27:52;;;;;;;7.45;4.43;;;;;;;;;;6292550;28;20070;-81
2023/09/27 14:30:54;;;;;;;6.85;3.80;;;;;;;;;;6290135;28;20147;-80
2023/09/27 14:33:57;;;;;;;6.78;3.92;;;;;;;;;;6291056;28;20072;-80
2023/09/27 14:36:59;;;;;;;7.85;3.92;;;;;;;;;;6265978;28;20052;-81
2023/09/27 14:40:09;;;;;;;6.35;3.97;;;;;;;;;;6290969;28;20052;-79
2023/09/27 14:43:13;;;;;;;7.70;3.72;;;;;;;;;;6292481;28;20120;-79
2023/09/27 14:46:15;;;;;;;8.73;4.38;;;;;;;;;;6291729;28;20052;-79
2023/09/27 14:49:18;;;;;;;9.73;4.43;;;;;;;;;;6294089;28;20061;-80
2023/09/27 14:52:20;;;;;;;8.68;3.83;;;;;;;;;;6296829;28;20335;-79
2023/09/27 14:55:24;;;;;;;10.05;4.05;;;;;;;;;;6285777;28;20056;-79
2023/09/27 15:02:36;;;;;;;6.35;3.70;;;;;;;;;;6252165;28;20059;-79
2023/09/27 15:09:28;;;;;;;7.65;4.18;;;;;;;;;;6198158;28;20046;-79
2023/09/27 15:13:00;;;;;;;6.63;3.88;;;;;;;;;;6278345;28;20076;-79
2023/09/27 15:16:08;;;;;;;4.63;3.95;;;;;;;;;;6281513;28;20072;-81
2023/09/27 15:19:43;;;;;;;8.70;3.95;;;;;;;;;;6276747;28;20054;-79
2023/09/27 15:23:17;;;;;;;13.07;4.00;;;;;;;;;;6243225;28;20049;-79
2023/09/27 15:26:35;;;;;;;5.85;3.63;;;;;;;;;;6281668;28;20055;-79
2023/09/27 15:30:17;;;;;;;7.55;4.25;;;;;;;;;;6292190;28;20052;-79
2023/09/27 15:33:39;;;;;;;8.95;4.28;;;;;;;;;;6290352;28;20047;-79
2023/09/27 15:36:53;;;;;;;8.38;4.10;;;;;;;;;;6295136;28;20222;-79
2023/09/27 15:39:55;;;;;;;8.02;4.13;;;;;;;;;;6292021;28;20072;-79
2023/09/27 15:43:00;;;;;;;11.20;4.00;;;;;;;;;;6278434;28;20269;-79
2023/09/27 15:46:25;;;;;;;7.40;3.85;;;;;;;;;;6277177;28;20114;-79
2023/09/27 15:49:57;;;;;;;7.07;4.00;;;;;;;;;;6238734;28;20080;-79
2023/09/27 15:53:38;;;;;;;;;;;;;;;;;;;;;
2023/09/27 15:56:42;;;;;;;30.98;27.05;;;;;;;;;;6264563;28;20079;-79
2023/09/27 16:03:51;;;;;;;7.35;4.40;;;;;;;;;;6219967;28;20107;-79
2023/09/27 16:11:38;;;;;;;9.85;3.80;;;;;;;;;;6172374;28;20258;-79
2023/09/27 16:14:40;;;;;;;8.57;4.38;;;;;;;;;;6197198;28;20148;-79
2023/09/27 16:21:22;;;;;;;11.70;5.07;;;;;;;;;;6176706;28;20278;-78
2023/09/27 16:24:26;;;;;;;12.25;4.97;;;;;;;;;;6218376;28;20256;-79
2023/09/27 16:27:39;;;;;;;9.52;4.25;;;;;;;;;;6216030;28;20084;-80
2023/09/27 16:30:58;;;;;;;8.93;4.05;;;;;;;;;;6220329;28;20062;-80
2023/09/27 16:34:15;;;;;;;;;;;;;;;;;;;;;
2023/09/27 16:37:41;;;;;;;;;;;;;;;;;;;;;
2023/09/27 16:41:04;;;;;;;17.55;8.25;;;;;;;;;;6220011;28;20038;-79
2023/09/27 16:44:11;;;;;;;8.07;4.37;;;;;;;;;;6205167;28;20262;-79
2023/09/27 16:47:13;;;;;;;5.97;4.85;;;;;;;;;;6263359;28;20364;-79
2023/09/27 16:50:24;;;;;;;9.60;4.82;;;;;;;;;;6277244;28;20045;-79
2023/09/27 16:57:23;;;;;;;8.70;4.25;;;;;;;;;;6213597;28;20061;-78
2023/09/27 17:00:51;;;;;;;14.38;5.15;;;;;;;;;;6223949;28;20058;-81
2023/09/27 17:03:52;;;;;;;7.50;4.43;;;;;;;;;;6214852;28;20045;-81
2023/09/27 17:07:03;;;;;;;14.03;4.60;;;;;;;;;;6221498;28;20049;-79
2023/09/27 17:10:08;;;;;;;8.80;5.03;;;;;;;;;;6224382;28;20700;-79
2023/09/27 17:13:10;;;;;;;7.85;4.82;;;;;;;;;;6218908;28;20181;-79
2023/09/27 17:19:36;;;;;;;15.60;7.18;;;;;;;;;;6193979;28;20052;-79
2023/09/27 17:22:40;;;;;;;8.67;4.73;;;;;;;;;;6211652;28;20045;-80
2023/09/27 17:25:42;;;;;;;8.50;4.75;;;;;;;;;;6221249;28;20057;-79
2023/09/27 17:28:44;;;;;;;13.57;5.93;;;;;;;;;;6222870;28;20050;-77
2023/09/27 17:31:49;;;;;;;8.47;5.60;;;;;;;;;;6210924;28;20069;-78
2023/09/27 17:34:51;;;;;;;7.78;4.97;;;;;;;;;;6277138;28;20060;-81
2023/09/27 17:37:55;;;;;;;9.83;5.13;;;;;;;;;;6294578;28;20240;-79
2023/09/27 17:44:13;;;;;;;12.27;6.28;;;;;;;;;;6291327;28;20348;-75
2023/09/27 17:47:23;;;;;;;8.70;5.87;;;;;;;;;;6291286;28;20214;-76
2023/09/27 17:50:25;;;;;;;13.30;9.10;;;;;;;;;;6289333;28;20520;-75
2023/09/27 17:53:28;;;;;;;11.07;7.22;;;;;;;;;;6291821;28;20060;-75
2023/09/27 17:56:30;;;;;;;11.07;6.25;;;;;;;;;;6291488;28;20052;-75
2023/09/27 17:59:35;;;;;;;12.57;5.80;;;;;;;;;;6288678;28;20729;-79
2023/09/27 18:02:38;;;;;;;11.15;5.50;;;;;;;;;;6288842;28;20253;-80
2023/09/27 18:05:41;;;;;;;12.27;6.25;;;;;;;;;;6289031;28;20103;-79
2023/09/27 18:08:43;;;;;;;11.15;5.72;;;;;;;;;;6294508;28;20391;-79
2023/09/27 18:11:45;;;;;;;12.53;6.50;;;;;;;;;;6291203;28;20075;-76
2023/09/27 18:14:49;;;;;;;12.55;6.30;;;;;;;;;;6291752;28;20044;-79
2023/09/27 18:17:55;;;;;;;10.15;6.32;;;;;;;;;;6290449;28;20316;-79
2023/09/27 18:20:57;;;;;;;10.80;5.82;;;;;;;;;;6296996;28;20056;-79
2023/09/27 18:23:59;;;;;;;12.85;7.07;;;;;;;;;;6294583;28;20052;-81
2023/09/27 18:27:06;;;;;;;12.48;6.50;;;;;;;;;;6290385;28;20403;-81
2023/09/27 18:30:33;;;;;;;11.25;6.20;;;;;;;;;;6294977;28;20056;-79
2023/09/27 18:33:40;;;;;;;8.05;6.28;;;;;;;;;;6286658;28;20067;-78
2023/09/27 18:36:42;;;;;;;11.80;5.90;;;;;;;;;;6295854;28;20056;-76
2023/09/27 18:39:43;;;;;;;12.80;6.70;;;;;;;;;;6293768;28;20045;-79
2023/09/27 18:42:45;;;;;;;14.20;6.40;;;;;;;;;;6293344;28;20325;-76
2023/09/27 18:45:47;;;;;;;14.23;7.20;;;;;;;;;;6298179;28;20210;-77
2023/09/27 18:48:51;;;;;;;12.90;6.63;;;;;;;;;;6297580;28;20079;-81
2023/09/27 18:51:54;;;;;;;12.35;6.40;;;;;;;;;;6273406;28;20049;-82
2023/09/27 18:54:55;;;;;;;11.80;6.47;;;;;;;;;;6269128;28;20076;-78
2023/09/27 18:57:57;;;;;;;10.93;6.65;;;;;;;;;;6272609;28;20112;-81
2023/09/27 19:00:59;;;;;;;14.90;6.50;;;;;;;;;;6272175;28;20059;-81
2023/09/27 19:04:03;;;;;;;13.23;6.70;;;;;;;;;;6265518;28;20064;-78
2023/09/27 19:07:05;;;;;;;11.35;6.97;;;;;;;;;;6271362;28;20061;-80
2023/09/27 19:10:11;;;;;;;12.50;6.73;;;;;;;;;;6271359;28;20053;-77
2023/09/27 19:13:13;;;;;;;10.48;6.60;;;;;;;;;;6269289;28;20522;-78
2023/09/27 19:16:15;;;;;;;16.27;7.10;;;;;;;;;;6286058;28;20136;-80
2023/09/27 19:19:18;;;;;;;12.45;7.15;;;;;;;;;;6272414;28;20112;-78
2023/09/27 19:22:20;;;;;;;7.43;5.78;;;;;;;;;;6272908;28;20105;-78
2023/09/27 19:25:21;;;;;;;11.00;5.78;;;;;;;;;;6292583;28;20060;-78